Time;durP1;ratioP1;P1;durP2;ratioP2;P2;SDS_P1;SDS_P2;PMS_P1;PMS_P2;Temp;Humidity;BMP_temperature;BMP_pressure;BME280_temperature;BME280_humidity;BME280_pressure;Samples;Min_cycle;Max_cycle;Signal;HPM_P1;HPM_P2
2023/03/21 00:00:00;;;;;;;1.10;0.52;;;11.50;99.90;;;;;;5095512;28;20718;-55
2023/03/21 00:02:26;;;;;;;1.00;0.60;;;11.40;99.90;;;;;;5095159;28;20457;-54
2023/03/21 00:04:55;;;;;;;0.80;0.50;;;11.30;99.90;;;;;;5095865;28;20461;-56
2023/03/21 00:07:22;;;;;;;0.75;0.50;;;11.30;99.90;;;;;;5095276;28;20482;-56
2023/03/21 00:09:49;;;;;;;1.08;0.50;;;11.20;99.90;;;;;;5096172;28;21428;-56
2023/03/21 00:12:16;;;;;;;0.90;0.60;;;11.10;1.00;;;;;;5096209;28;20446;-56
2023/03/21 00:14:43;;;;;;;0.80;0.50;;;11.30;1.00;;;;;;5095896;28;20783;-54
2023/03/21 00:17:10;;;;;;;1.20;0.60;;;11.40;1.00;;;;;;5095763;28;20475;-53
2023/03/21 00:19:40;;;;;;;0.80;0.50;;;11.50;1.00;;;;;;5096095;28;20414;-57
2023/03/21 00:22:08;;;;;;;1.17;0.50;;;11.50;99.90;;;;;;5094611;28;20853;-55
2023/03/21 00:24:35;;;;;;;0.70;0.50;;;11.50;99.90;;;;;;5096370;28;20503;-54
2023/03/21 00:27:02;;;;;;;1.50;0.60;;;11.50;1.00;;;;;;5096163;28;20518;-55
2023/03/21 00:29:29;;;;;;;1.13;0.60;;;11.50;1.00;;;;;;5096349;28;20477;-55
2023/03/21 00:31:56;;;;;;;1.20;0.50;;;11.50;1.00;;;;;;5095795;28;20831;-53
2023/03/21 00:34:23;;;;;;;0.80;0.50;;;11.60;1.00;;;;;;5095438;28;20504;-56
2023/03/21 00:36:50;;;;;;;1.33;0.50;;;11.70;1.00;;;;;;5095305;28;20475;-55
2023/03/21 00:39:19;;;;;;;0.70;0.45;;;11.60;1.00;;;;;;5094962;28;20436;-54
2023/03/21 00:41:46;;;;;;;0.80;0.45;;;11.60;1.00;;;;;;5094643;28;20427;-55
2023/03/21 00:44:14;;;;;;;0.73;0.50;;;11.60;1.00;;;;;;5094497;28;20424;-55
2023/03/21 00:46:41;;;;;;;1.13;0.50;;;11.70;1.00;;;;;;5093767;28;20465;-57
2023/03/21 00:49:08;;;;;;;0.80;0.60;;;11.60;99.90;;;;;;5094961;28;20467;-54
2023/03/21 00:51:35;;;;;;;0.70;0.50;;;11.60;99.90;;;;;;5094503;28;20418;-54
2023/03/21 00:54:04;;;;;;;0.70;0.50;;;11.40;99.90;;;;;;5095752;28;20475;-56
2023/03/21 00:56:32;;;;;;;0.70;0.40;;;11.20;1.00;;;;;;5096130;28;20738;-57
2023/03/21 00:58:59;;;;;;;0.70;0.50;;;11.00;1.00;;;;;;5096362;28;20422;-56
2023/03/21 01:01:30;;;;;;;1.00;0.60;;;11.00;1.00;;;;;;5095209;28;20434;-56
2023/03/21 01:04:02;;;;;;;1.10;0.50;;;10.90;1.00;;;;;;5095732;28;20876;-56
2023/03/21 01:06:29;;;;;;;0.90;0.50;;;11.00;1.00;;;;;;5095503;28;20418;-53
2023/03/21 01:08:56;;;;;;;0.70;0.50;;;11.00;1.00;;;;;;5095944;28;20435;-55
2023/03/21 01:11:27;;;;;;;1.08;0.60;;;11.10;1.00;;;;;;5095039;28;20452;-57
2023/03/21 01:13:56;;;;;;;0.77;0.60;;;11.10;1.00;;;;;;5095655;28;20885;-51
2023/03/21 01:16:23;;;;;;;1.67;0.60;;;11.20;1.00;;;;;;5095794;28;20857;-56
2023/03/21 01:18:51;;;;;;;1.00;0.60;;;11.30;1.00;;;;;;5094886;28;20749;-57
2023/03/21 01:21:18;;;;;;;0.95;0.70;;;11.40;1.00;;;;;;5095836;28;20434;-53
2023/03/21 01:23:45;;;;;;;1.30;0.60;;;11.50;1.00;;;;;;5095626;28;20418;-56
2023/03/21 01:26:14;;;;;;;0.83;0.60;;;11.70;1.00;;;;;;5094828;28;20501;-55
2023/03/21 01:28:42;;;;;;;1.00;0.60;;;11.70;1.00;;;;;;5095261;28;20418;-57
2023/03/21 01:31:12;;;;;;;0.80;0.50;;;11.70;99.90;;;;;;5094687;28;20430;-56
2023/03/21 01:33:39;;;;;;;0.70;0.50;;;11.60;1.00;;;;;;5095213;28;20748;-57
2023/03/21 01:36:07;;;;;;;1.00;0.60;;;11.60;1.00;;;;;;5095376;28;20430;-54
2023/03/21 01:38:34;;;;;;;1.40;0.80;;;11.60;99.90;;;;;;5095432;28;20832;-56
2023/03/21 01:41:02;;;;;;;1.60;0.50;;;11.60;99.90;;;;;;5094362;28;20491;-56
2023/03/21 01:43:31;;;;;;;0.80;0.50;;;11.50;1.00;;;;;;5094943;28;20428;-57
2023/03/21 01:46:31;;;;;;;1.60;0.60;;;11.40;1.00;;;;;;5095234;28;20842;-54
2023/03/21 01:49:03;;;;;;;1.60;0.60;;;11.40;1.00;;;;;;5095175;28;20810;-56
2023/03/21 01:51:35;;;;;;;1.00;0.60;;;11.40;1.00;;;;;;5094974;28;20978;-56
2023/03/21 01:54:03;;;;;;;1.00;0.50;;;11.30;1.00;;;;;;5094814;28;20557;-56
2023/03/21 01:56:33;;;;;;;0.80;0.60;;;11.30;1.00;;;;;;5094090;28;20426;-56
2023/03/21 01:59:06;;;;;;;1.10;0.70;;;11.30;1.00;;;;;;5095292;28;20841;-56
2023/03/21 02:01:37;;;;;;;1.00;0.60;;;11.40;1.00;;;;;;5094767;28;20440;-54
2023/03/21 02:04:07;;;;;;;0.82;0.60;;;11.50;1.00;;;;;;5095368;28;20922;-55
2023/03/21 02:06:42;;;;;;;1.70;0.60;;;11.50;1.00;;;;;;5095132;28;20430;-55
2023/03/21 02:09:13;;;;;;;1.00;0.70;;;11.40;1.00;;;;;;5095091;28;20864;-55
2023/03/21 02:11:45;;;;;;;1.50;0.70;;;11.30;1.00;;;;;;5094521;28;20475;-54
2023/03/21 02:14:14;;;;;;;1.00;0.70;;;11.40;1.00;;;;;;5094501;28;20778;-55
2023/03/21 02:16:50;;;;;;;1.15;0.77;;;11.40;1.00;;;;;;5094614;28;20795;-56
2023/03/21 02:20:07;;;;;;;1.20;0.70;;;11.30;1.00;;;;;;5094454;28;20466;-54
2023/03/21 02:23:10;;;;;;;0.80;0.60;;;11.20;1.00;;;;;;5095215;28;20430;-54
2023/03/21 02:26:18;;;;;;;0.90;0.60;;;11.10;1.00;;;;;;5042249;28;20422;-55
2023/03/21 02:28:49;;;;;;;1.10;0.80;;;10.90;1.00;;;;;;5094533;28;20887;-56
2023/03/21 02:31:27;;;;;;;1.00;0.70;;;10.80;1.00;;;;;;5094713;28;20495;-54
2023/03/21 02:34:27;;;;;;;1.20;0.80;;;10.80;1.00;;;;;;5095150;28;20417;-55
2023/03/21 02:37:05;;;;;;;0.90;0.70;;;10.80;1.00;;;;;;5095147;28;20461;-54
2023/03/21 02:39:46;;;;;;;0.85;0.60;;;11.00;1.00;;;;;;5094293;28;20421;-50
2023/03/21 02:42:20;;;;;;;1.40;0.80;;;11.20;1.00;;;;;;5096443;28;20743;-55
2023/03/21 02:44:56;;;;;;;0.90;0.70;;;11.20;1.00;;;;;;5098477;28;20818;-55
2023/03/21 02:47:29;;;;;;;1.23;0.80;;;11.30;1.00;;;;;;5097776;28;20523;-54
2023/03/21 02:50:03;;;;;;;1.10;0.70;;;11.20;1.00;;;;;;5098642;28;20833;-56
2023/03/21 02:52:35;;;;;;;1.20;0.70;;;11.10;1.00;;;;;;5098532;28;20483;-55
2023/03/21 02:55:04;;;;;;;1.10;0.80;;;11.00;1.00;;;;;;5094729;28;20430;-55
2023/03/21 02:57:33;;;;;;;1.05;0.80;;;11.00;1.00;;;;;;5098097;28;20435;-51
2023/03/21 03:00:01;;;;;;;1.00;0.80;;;10.90;1.00;;;;;;5098502;28;20430;-54
2023/03/21 03:02:30;;;;;;;1.70;0.80;;;10.90;1.00;;;;;;5097496;28;20425;-55
2023/03/21 03:04:56;;;;;;;1.50;0.80;;;10.90;1.00;;;;;;5089654;28;20435;-54
2023/03/21 03:07:41;;;;;;;1.20;0.80;;;10.90;1.00;;;;;;5098584;28;20414;-56
2023/03/21 03:10:29;;;;;;;1.00;0.60;;;11.00;1.00;;;;;;5097817;28;20456;-54
2023/03/21 03:13:05;;;;;;;1.30;0.60;;;11.10;1.00;;;;;;5097068;28;20418;-56
2023/03/21 03:15:40;;;;;;;1.30;0.60;;;11.10;1.00;;;;;;5076815;28;20420;-54
2023/03/21 03:18:19;;;;;;;1.40;0.60;;;11.00;1.00;;;;;;5076741;28;20958;-51
2023/03/21 03:20:53;;;;;;;0.90;0.60;;;10.90;1.00;;;;;;5093783;28;20520;-55
2023/03/21 03:23:29;;;;;;;1.10;0.60;;;10.90;1.00;;;;;;5096332;28;20483;-53
2023/03/21 03:26:02;;;;;;;1.20;0.70;;;11.00;1.00;;;;;;5096876;28;20778;-55
2023/03/21 03:28:33;;;;;;;1.00;0.70;;;11.00;1.00;;;;;;5095138;28;20510;-55
2023/03/21 03:31:02;;;;;;;1.40;0.70;;;10.90;1.00;;;;;;5093707;28;20445;-53
2023/03/21 03:33:30;;;;;;;0.95;0.60;;;10.90;1.00;;;;;;5096743;28;20908;-53
2023/03/21 03:36:00;;;;;;;0.90;0.68;;;10.90;1.00;;;;;;5096165;28;20426;-55
2023/03/21 03:38:29;;;;;;;0.90;0.70;;;10.70;1.00;;;;;;5093894;28;20434;-52
2023/03/21 03:41:02;;;;;;;1.52;0.70;;;10.70;1.00;;;;;;5097733;28;20436;-51
2023/03/21 03:43:35;;;;;;;1.30;0.70;;;10.60;1.00;;;;;;5096320;28;20522;-50
2023/03/21 03:46:09;;;;;;;1.05;0.70;;;10.70;1.00;;;;;;5096878;28;20442;-54
2023/03/21 03:48:45;;;;;;;0.90;0.60;;;10.60;1.00;;;;;;5097139;28;20810;-53
2023/03/21 03:51:20;;;;;;;1.38;0.60;;;10.70;1.00;;;;;;5096901;28;20430;-51
2023/03/21 03:53:54;;;;;;;1.08;0.70;;;10.70;1.00;;;;;;5096585;28;20406;-52
2023/03/21 03:56:22;;;;;;;1.70;0.70;;;10.60;1.00;;;;;;5097164;28;20483;-56
2023/03/21 03:58:49;;;;;;;1.02;0.70;;;10.50;1.00;;;;;;5097474;28;20424;-55
2023/03/21 04:01:16;;;;;;;1.40;0.70;;;10.40;1.00;;;;;;5097321;28;20781;-53
2023/03/21 04:03:46;;;;;;;1.30;0.60;;;10.50;1.00;;;;;;5096878;28;20434;-53
2023/03/21 04:06:13;;;;;;;0.95;0.70;;;10.60;1.00;;;;;;5095810;28;20422;-56
2023/03/21 04:08:40;;;;;;;1.10;0.70;;;10.70;1.00;;;;;;5096784;28;20422;-53
2023/03/21 04:11:09;;;;;;;0.85;0.63;;;10.80;1.00;;;;;;5097348;28;20450;-54
2023/03/21 04:13:36;;;;;;;0.90;0.60;;;10.80;1.00;;;;;;5096305;28;20833;-51
2023/03/21 04:16:03;;;;;;;1.10;0.70;;;10.80;1.00;;;;;;5097088;28;20969;-54
2023/03/21 04:18:31;;;;;;;0.98;0.70;;;10.80;1.00;;;;;;5096750;28;20504;-54
2023/03/21 04:20:58;;;;;;;1.00;0.60;;;10.80;1.00;;;;;;5096144;28;20524;-50
2023/03/21 04:23:25;;;;;;;1.08;0.60;;;11.00;1.00;;;;;;5096600;28;21350;-52
2023/03/21 04:25:52;;;;;;;0.85;0.60;;;11.10;1.00;;;;;;5096780;28;20465;-55
2023/03/21 04:28:21;;;;;;;1.30;0.60;;;11.20;99.90;;;;;;5096321;28;20432;-55
2023/03/21 04:30:50;;;;;;;1.00;0.70;;;11.20;99.90;;;;;;5096391;28;20432;-55
2023/03/21 04:33:17;;;;;;;1.08;0.70;;;11.20;99.90;;;;;;5095335;28;20416;-55
2023/03/21 04:35:44;;;;;;;1.20;0.80;;;11.00;99.90;;;;;;5095581;28;20433;-52
2023/03/21 04:38:11;;;;;;;1.08;0.70;;;11.00;99.90;;;;;;5096442;28;20414;-53
2023/03/21 04:40:38;;;;;;;1.25;0.82;;;10.90;99.90;;;;;;5095180;28;20488;-54
2023/03/21 04:43:05;;;;;;;1.10;0.70;;;10.80;99.90;;;;;;5096113;28;20802;-55
2023/03/21 04:45:34;;;;;;;1.20;0.70;;;10.70;99.90;;;;;;5095173;28;20715;-52
2023/03/21 04:48:01;;;;;;;1.10;0.80;;;10.60;1.00;;;;;;5094477;28;20483;-53
2023/03/21 04:50:28;;;;;;;0.80;0.60;;;10.40;1.00;;;;;;5095995;28;20435;-54
2023/03/21 04:52:55;;;;;;;1.10;0.70;;;10.10;1.00;;;;;;5094664;28;20413;-52
2023/03/21 04:55:23;;;;;;;1.10;0.60;;;9.90;1.00;;;;;;5094584;28;20853;-51
2023/03/21 04:57:50;;;;;;;1.17;0.60;;;9.90;1.00;;;;;;5096023;28;20417;-51
2023/03/21 05:00:18;;;;;;;1.00;0.70;;;10.00;1.00;;;;;;5095647;28;20807;-54
2023/03/21 05:02:46;;;;;;;1.20;0.60;;;10.00;1.00;;;;;;5094693;28;20482;-52
2023/03/21 05:05:13;;;;;;;1.00;0.60;;;10.00;1.00;;;;;;5095036;28;20433;-55
2023/03/21 05:07:41;;;;;;;1.10;0.70;;;10.10;1.00;;;;;;5094996;28;20475;-54
2023/03/21 05:10:10;;;;;;;0.90;0.60;;;10.00;1.00;;;;;;5094536;28;20430;-51
2023/03/21 05:12:38;;;;;;;1.10;0.70;;;10.00;1.00;;;;;;5094681;28;20418;-53
2023/03/21 05:15:06;;;;;;;1.40;0.70;;;10.10;1.00;;;;;;5095754;28;20490;-52
2023/03/21 05:17:33;;;;;;;1.63;0.70;;;10.20;1.00;;;;;;5095007;28;20410;-55
2023/03/21 05:20:03;;;;;;;1.70;0.70;;;10.20;1.00;;;;;;5095937;28;20421;-55
2023/03/21 05:22:39;;;;;;;0.90;0.70;;;10.30;1.00;;;;;;5095204;28;20429;-54
2023/03/21 05:25:07;;;;;;;0.90;0.60;;;10.40;1.00;;;;;;5094721;28;20502;-52
2023/03/21 05:27:34;;;;;;;2.08;0.70;;;10.50;1.00;;;;;;5094671;28;20417;-56
2023/03/21 05:30:04;;;;;;;0.98;0.70;;;10.50;1.00;;;;;;5095189;28;20546;-54
2023/03/21 05:32:31;;;;;;;1.10;0.70;;;10.40;1.00;;;;;;5094824;28;20427;-54
2023/03/21 05:34:58;;;;;;;1.00;0.70;;;10.30;1.00;;;;;;5095325;28;20904;-56
2023/03/21 05:37:27;;;;;;;1.55;0.80;;;10.30;1.00;;;;;;5094791;28;20417;-54
2023/03/21 05:39:54;;;;;;;1.05;0.70;;;10.10;1.00;;;;;;5095234;28;20463;-54
2023/03/21 05:42:21;;;;;;;1.10;0.60;;;10.10;1.00;;;;;;5094284;28;20422;-55
2023/03/21 05:44:48;;;;;;;0.90;0.60;;;10.00;1.00;;;;;;5094442;28;20414;-52
2023/03/21 05:47:16;;;;;;;1.30;0.70;;;10.00;1.00;;;;;;5093317;28;20430;-50
2023/03/21 05:49:44;;;;;;;1.10;0.70;;;10.10;1.00;;;;;;5092457;28;20426;-55
2023/03/21 05:52:11;;;;;;;1.30;0.80;;;10.30;1.00;;;;;;5092686;28;20417;-54
2023/03/21 05:54:39;;;;;;;1.60;0.80;;;10.30;1.00;;;;;;5092242;28;20482;-54
2023/03/21 05:57:06;;;;;;;2.22;0.80;;;10.20;1.00;;;;;;5094713;28;20453;-54
2023/03/21 05:59:33;;;;;;;1.00;0.70;;;10.20;1.00;;;;;;5094761;28;20471;-54
2023/03/21 06:02:00;;;;;;;0.90;0.70;;;9.90;1.00;;;;;;5090665;28;20425;-55
2023/03/21 06:04:28;;;;;;;0.90;0.70;;;9.90;1.00;;;;;;5090252;28;20430;-53
2023/03/21 06:06:55;;;;;;;0.95;0.60;;;9.90;1.00;;;;;;5089638;28;20523;-52
2023/03/21 06:09:22;;;;;;;1.30;0.70;;;9.80;1.00;;;;;;5091338;28;20422;-55
2023/03/21 06:11:53;;;;;;;1.20;0.70;;;9.80;1.00;;;;;;5090614;28;20426;-53
2023/03/21 06:14:20;;;;;;;1.40;0.60;;;9.80;1.00;;;;;;5090057;28;20414;-53
2023/03/21 06:16:47;;;;;;;1.58;0.70;;;10.20;1.00;;;;;;5095004;28;20475;-52
2023/03/21 06:19:15;;;;;;;0.90;0.60;;;10.40;1.00;;;;;;5095570;28;20417;-52
2023/03/21 06:21:42;;;;;;;1.45;0.70;;;10.60;1.00;;;;;;5095823;28;20417;-53
2023/03/21 06:24:09;;;;;;;1.00;0.60;;;10.50;1.00;;;;;;5096837;28;20918;-51
2023/03/21 06:26:36;;;;;;;0.90;0.60;;;10.40;1.00;;;;;;5096812;28;20430;-55
2023/03/21 06:29:05;;;;;;;1.02;0.60;;;10.20;1.00;;;;;;5096809;28;21050;-52
2023/03/21 06:31:32;;;;;;;1.20;0.70;;;9.90;1.00;;;;;;5095151;28;20425;-55
2023/03/21 06:33:59;;;;;;;1.00;0.60;;;9.90;1.00;;;;;;5095410;28;20417;-55
2023/03/21 06:36:26;;;;;;;1.40;0.73;;;10.10;1.00;;;;;;5095316;28;20784;-56
2023/03/21 06:38:53;;;;;;;1.55;0.60;;;10.20;1.00;;;;;;5093845;28;20795;-55
2023/03/21 06:41:21;;;;;;;1.70;0.70;;;10.20;1.00;;;;;;5094851;28;20441;-53
2023/03/21 06:43:48;;;;;;;1.50;0.70;;;10.10;1.00;;;;;;5095907;28;20861;-53
2023/03/21 06:46:16;;;;;;;1.13;0.70;;;10.20;1.00;;;;;;5094412;28;20430;-52
2023/03/21 06:48:44;;;;;;;1.30;0.60;;;10.20;1.00;;;;;;5096601;28;20542;-50
2023/03/21 06:51:12;;;;;;;1.50;0.60;;;10.10;1.00;;;;;;5096353;28;20468;-55
2023/03/21 06:53:40;;;;;;;1.10;0.70;;;10.10;1.00;;;;;;5096269;28;20406;-53
2023/03/21 06:56:08;;;;;;;1.20;0.60;;;10.10;1.00;;;;;;5096047;28;20860;-55
2023/03/21 06:58:35;;;;;;;1.00;0.70;;;10.10;1.00;;;;;;5097567;28;20714;-56
2023/03/21 07:01:03;;;;;;;0.93;0.70;;;10.10;1.00;;;;;;5097112;28;20439;-54
2023/03/21 07:03:32;;;;;;;1.30;0.60;;;10.10;1.00;;;;;;5095103;28;20503;-55
2023/03/21 07:05:59;;;;;;;1.33;0.60;;;10.10;1.00;;;;;;5095634;28;20433;-55
2023/03/21 07:08:26;;;;;;;1.80;0.70;;;10.20;1.00;;;;;;5095975;28;20471;-54
2023/03/21 07:10:56;;;;;;;1.30;0.60;;;10.20;1.00;;;;;;5096619;28;20841;-54
2023/03/21 07:13:23;;;;;;;0.90;0.60;;;10.30;1.00;;;;;;5095377;28;20764;-54
2023/03/21 07:15:52;;;;;;;0.80;0.60;;;10.30;1.00;;;;;;5093392;28;20429;-54
2023/03/21 07:18:19;;;;;;;1.02;0.60;;;10.40;1.00;;;;;;5093903;28;20725;-54
2023/03/21 07:20:50;;;;;;;1.00;0.60;;;10.50;1.00;;;;;;5094339;28;20784;-54
2023/03/21 07:23:17;;;;;;;0.90;0.65;;;10.60;1.00;;;;;;5092418;28;20520;-59
2023/03/21 07:25:45;;;;;;;0.93;0.70;;;10.60;1.00;;;;;;5093660;28;20426;-59
2023/03/21 07:28:12;;;;;;;1.20;0.70;;;10.60;1.00;;;;;;5091949;28;20421;-59
2023/03/21 07:30:39;;;;;;;1.40;0.70;;;10.70;58.80;;;;;;5094798;28;20892;-59
2023/03/21 07:33:06;;;;;;;0.90;0.60;;;10.80;99.90;;;;;;5093822;28;20422;-57
2023/03/21 07:35:35;;;;;;;0.90;0.60;;;10.90;99.90;;;;;;5091004;28;20435;-58
2023/03/21 07:38:03;;;;;;;1.70;0.70;;;11.00;99.90;;;;;;5091863;28;20790;-59
2023/03/21 07:40:30;;;;;;;1.58;0.70;;;11.00;99.90;;;;;;5094021;28;20430;-57
2023/03/21 07:42:58;;;;;;;1.10;0.60;;;11.10;99.90;;;;;;5094550;28;20422;-58
2023/03/21 07:45:26;;;;;;;1.45;0.70;;;11.10;99.90;;;;;;5094411;28;20479;-59
2023/03/21 07:47:53;;;;;;;1.60;0.60;;;11.10;99.90;;;;;;5095781;28;20426;-58
2023/03/21 07:50:21;;;;;;;1.27;0.70;;;11.10;99.90;;;;;;5094158;28;20433;-58
2023/03/21 07:52:49;;;;;;;1.40;0.70;;;11.20;99.90;;;;;;5095016;28;20414;-57
2023/03/21 07:55:17;;;;;;;1.40;0.70;;;11.20;99.90;;;;;;5095078;28;20513;-58
2023/03/21 07:57:45;;;;;;;1.30;0.68;;;11.40;99.90;;;;;;5095258;28;20418;-58
2023/03/21 08:00:21;;;;;;;1.00;0.60;;;11.40;99.90;;;;;;5094153;28;20426;-57
2023/03/21 08:02:53;;;;;;;2.42;0.63;;;11.70;99.90;;;;;;5094551;28;20414;-58
2023/03/21 08:05:20;;;;;;;1.15;0.60;;;11.80;99.90;;;;;;5094213;28;20532;-59
2023/03/21 08:07:48;;;;;;;0.90;0.60;;;11.80;99.90;;;;;;5094825;28;20645;-56
2023/03/21 08:10:15;;;;;;;1.00;0.60;;;11.90;99.90;;;;;;5092041;28;20467;-57
2023/03/21 08:12:44;;;;;;;1.00;0.50;;;12.00;99.90;;;;;;5094272;28;20890;-56
2023/03/21 08:15:12;;;;;;;0.80;0.50;;;12.00;99.90;;;;;;5094925;28;20822;-57
2023/03/21 08:17:39;;;;;;;0.77;0.50;;;12.00;99.90;;;;;;5095169;28;20453;-55
2023/03/21 08:20:09;;;;;;;2.60;0.60;;;12.10;99.90;;;;;;5093218;28;20426;-58
2023/03/21 08:22:36;;;;;;;1.70;0.50;;;12.20;99.90;;;;;;5093190;28;20714;-57
2023/03/21 08:25:04;;;;;;;0.80;0.50;;;12.40;99.90;;;;;;5094162;28;20453;-57
2023/03/21 08:27:31;;;;;;;0.90;0.50;;;12.50;99.90;;;;;;5092784;28;20783;-56
2023/03/21 08:30:00;;;;;;;2.90;0.60;;;12.50;99.90;;;;;;5093975;28;20434;-60
2023/03/21 08:32:29;;;;;;;1.80;0.50;;;12.60;99.90;;;;;;5092597;28;20857;-59
2023/03/21 08:34:59;;;;;;;1.30;0.40;;;12.60;99.90;;;;;;5093531;28;20422;-59
2023/03/21 08:37:27;;;;;;;1.90;0.50;;;12.60;99.90;;;;;;5095534;28;20417;-60
2023/03/21 08:39:54;;;;;;;0.60;0.40;;;12.60;99.90;;;;;;5092619;28;20410;-59
2023/03/21 08:42:22;;;;;;;0.70;0.40;;;12.50;99.90;;;;;;5092413;28;20422;-59
2023/03/21 08:44:49;;;;;;;0.77;0.40;;;12.60;99.90;;;;;;5094958;28;20429;-58
2023/03/21 08:47:17;;;;;;;0.80;0.30;;;12.70;99.90;;;;;;5094098;28;20841;-59
2023/03/21 08:49:45;;;;;;;0.60;0.40;;;12.90;99.90;;;;;;5092043;28;20413;-58
2023/03/21 08:52:13;;;;;;;0.88;0.40;;;13.10;99.90;;;;;;5092346;28;20424;-59
2023/03/21 08:54:40;;;;;;;1.60;0.40;;;13.10;99.90;;;;;;5093633;28;20410;-59
2023/03/21 08:57:09;;;;;;;0.88;0.40;;;13.20;99.90;;;;;;5094187;28;20429;-58
2023/03/21 08:59:37;;;;;;;1.20;0.40;;;13.30;99.90;;;;;;5090202;28;20426;-60
2023/03/21 09:02:04;;;;;;;0.70;0.40;;;13.40;99.90;;;;;;5092165;28;20413;-59
2023/03/21 09:04:32;;;;;;;1.00;0.40;;;13.40;99.90;;;;;;5091713;28;20435;-60
2023/03/21 09:07:04;;;;;;;0.70;0.40;;;13.40;99.90;;;;;;5093834;28;20487;-60
2023/03/21 09:09:31;;;;;;;0.65;0.40;;;13.50;99.90;;;;;;5094270;28;20457;-60
2023/03/21 09:11:58;;;;;;;1.52;0.50;;;13.60;99.90;;;;;;5092283;28;20914;-60
2023/03/21 09:14:25;;;;;;;0.90;0.40;;;13.80;99.90;;;;;;5091794;28;20410;-61
2023/03/21 09:16:52;;;;;;;1.50;0.50;;;13.90;99.90;;;;;;5093975;28;20426;-60
2023/03/21 09:19:19;;;;;;;0.60;0.40;;;14.00;99.90;;;;;;5093863;28;20471;-61
2023/03/21 09:21:47;;;;;;;0.70;0.35;;;14.10;99.90;;;;;;5093508;28;20429;-60
2023/03/21 09:24:16;;;;;;;1.30;0.40;;;14.10;99.90;;;;;;5092120;28;20434;-60
2023/03/21 09:26:44;;;;;;;0.60;0.40;;;14.10;99.90;;;;;;5092593;28;20430;-60
2023/03/21 09:29:11;;;;;;;0.60;0.40;;;14.20;99.90;;;;;;5094151;28;20418;-60
2023/03/21 09:31:39;;;;;;;1.00;0.40;;;14.10;99.90;;;;;;5087404;28;21035;-60
2023/03/21 09:34:06;;;;;;;0.60;0.40;;;14.10;99.90;;;;;;5090666;28;20486;-60
2023/03/21 09:36:35;;;;;;;0.70;0.40;;;14.10;99.90;;;;;;5092552;28;20500;-60
2023/03/21 09:39:04;;;;;;;0.70;0.40;;;14.20;99.90;;;;;;5093080;28;20849;-61
2023/03/21 09:42:02;;;;;;;0.80;0.40;;;14.40;99.90;;;;;;5091026;28;20429;-60
2023/03/21 09:44:40;;;;;;;0.60;0.30;;;14.60;99.90;;;;;;5090802;28;20437;-60
2023/03/21 09:47:16;;;;;;;1.00;0.40;;;14.60;99.90;;;;;;5093471;28;20475;-60
2023/03/21 09:49:52;;;;;;;0.60;0.40;;;14.70;99.90;;;;;;5093843;28;20536;-60
2023/03/21 09:52:24;;;;;;;0.60;0.38;;;14.80;99.90;;;;;;5092488;28;20760;-61
2023/03/21 09:54:54;;;;;;;0.73;0.40;;;14.90;99.90;;;;;;5093473;28;20475;-61
2023/03/21 09:57:31;;;;;;;0.70;0.40;;;15.00;99.90;;;;;;5092698;28;20418;-61
2023/03/21 10:00:07;;;;;;;0.60;0.40;;;15.10;99.90;;;;;;5093480;28;20465;-61
2023/03/21 10:02:37;;;;;;;0.60;0.30;;;15.20;99.90;;;;;;5093166;28;20405;-61
2023/03/21 10:05:12;;;;;;;0.50;0.30;;;15.30;99.90;;;;;;5092773;28;20434;-61
2023/03/21 10:07:43;;;;;;;1.00;0.40;;;15.70;99.90;;;;;;5091731;28;20418;-61
2023/03/21 10:10:17;;;;;;;1.40;0.40;;;16.00;99.90;;;;;;5092955;28;20716;-59
2023/03/21 10:12:47;;;;;;;1.20;0.50;;;16.10;99.90;;;;;;5093455;28;20822;-61
2023/03/21 10:15:19;;;;;;;0.70;0.30;;;16.10;99.90;;;;;;5091748;28;20429;-64
2023/03/21 10:17:52;;;;;;;1.33;0.40;;;15.90;99.90;;;;;;5092263;28;20418;-64
2023/03/21 10:20:22;;;;;;;0.90;0.55;;;15.70;99.90;;;;;;5092600;28;20841;-63
2023/03/21 10:22:52;;;;;;;0.80;0.40;;;15.70;99.90;;;;;;5092495;28;20479;-64
2023/03/21 10:25:25;;;;;;;0.60;0.30;;;16.00;99.90;;;;;;5092888;28;20440;-64
2023/03/21 10:27:52;;;;;;;0.60;0.30;;;16.30;99.90;;;;;;5091880;28;20487;-64
2023/03/21 10:30:30;;;;;;;1.77;0.30;;;16.40;99.90;;;;;;5092251;28;20918;-64
2023/03/21 10:33:01;;;;;;;0.60;0.40;;;16.60;99.90;;;;;;5092828;28;20417;-64
2023/03/21 10:35:30;;;;;;;0.60;0.30;;;16.70;99.90;;;;;;5091822;28;20426;-65
2023/03/21 10:37:57;;;;;;;0.60;0.30;;;16.80;99.90;;;;;;5091248;28;20425;-64
2023/03/21 10:40:25;;;;;;;0.70;0.40;;;17.10;99.90;;;;;;5090450;28;20921;-64
2023/03/21 10:42:55;;;;;;;0.70;0.30;;;17.30;99.90;;;;;;5093086;28;20729;-64
2023/03/21 10:45:23;;;;;;;0.57;0.35;;;17.40;99.90;;;;;;5091883;28;20487;-66
2023/03/21 10:47:54;;;;;;;0.70;0.40;;;17.40;99.90;;;;;;5090922;28;20426;-64
2023/03/21 10:50:24;;;;;;;1.20;0.30;;;17.30;99.90;;;;;;5091351;28;20890;-64
2023/03/21 10:52:59;;;;;;;0.80;0.40;;;17.30;99.90;;;;;;5091993;28;20513;-63
2023/03/21 10:55:30;;;;;;;0.70;0.40;;;17.50;99.90;;;;;;5092208;28;20777;-63
2023/03/21 10:58:02;;;;;;;0.60;0.40;;;17.70;99.30;;;;;;5091353;28;20475;-63
2023/03/21 11:00:35;;;;;;;0.90;0.40;;;17.70;99.90;;;;;;5090526;28;20487;-64
2023/03/21 11:03:03;;;;;;;0.60;0.30;;;17.60;98.50;;;;;;5094777;28;20418;-63
2023/03/21 11:05:36;;;;;;;0.70;0.30;;;17.40;97.20;;;;;;5095856;28;20938;-63
2023/03/21 11:08:06;;;;;;;0.50;0.30;;;17.20;97.40;;;;;;5093641;28;20421;-63
2023/03/21 11:10:37;;;;;;;0.60;0.40;;;17.20;98.20;;;;;;5093561;28;20487;-63
2023/03/21 11:13:08;;;;;;;0.88;0.45;;;17.10;97.90;;;;;;5095558;28;20449;-63
2023/03/21 11:15:52;;;;;;;0.80;0.40;;;17.10;98.20;;;;;;5094505;28;20422;-62
2023/03/21 11:18:21;;;;;;;0.52;0.30;;;17.20;98.40;;;;;;5094051;28;20438;-63
2023/03/21 11:20:54;;;;;;;0.87;0.30;;;17.30;98.90;;;;;;5094963;28;20524;-63
2023/03/21 11:23:26;;;;;;;0.70;0.30;;;17.50;98.50;;;;;;5093767;28;20487;-63
2023/03/21 11:25:57;;;;;;;2.00;0.30;;;17.70;99.30;;;;;;5096461;28;20425;-63
2023/03/21 11:28:32;;;;;;;0.50;0.30;;;17.70;96.00;;;;;;5093210;28;20425;-63
2023/03/21 11:31:01;;;;;;;0.50;0.30;;;17.70;96.50;;;;;;5094850;28;20512;-63
2023/03/21 11:33:34;;;;;;;1.00;0.20;;;17.50;96.60;;;;;;5093348;28;20806;-63
2023/03/21 11:36:02;;;;;;;0.70;0.25;;;17.50;96.40;;;;;;5094719;28;20430;-64
2023/03/21 11:38:32;;;;;;;1.80;0.40;;;17.40;97.20;;;;;;5095175;28;20491;-63
2023/03/21 11:41:03;;;;;;;0.50;0.30;;;17.50;96.30;;;;;;5093481;28;20505;-63
2023/03/21 11:43:32;;;;;;;0.50;0.30;;;17.10;95.30;;;;;;5091963;28;20475;-62
2023/03/21 11:46:01;;;;;;;0.45;0.20;;;17.10;96.00;;;;;;5093525;28;20491;-63
2023/03/21 11:48:29;;;;;;;0.60;0.30;;;17.20;97.30;;;;;;5094721;28;20425;-64
2023/03/21 11:51:03;;;;;;;0.40;0.20;;;17.30;97.30;;;;;;5093521;28;20711;-64
2023/03/21 11:53:40;;;;;;;0.40;0.20;;;17.40;96.20;;;;;;5093689;28;20426;-63
2023/03/21 11:56:25;;;;;;;0.50;0.30;;;17.40;97.10;;;;;;5094180;28;20417;-63
2023/03/21 11:59:24;;;;;;;0.60;0.30;;;17.60;96.40;;;;;;5093747;28;20425;-63
2023/03/21 12:02:15;;;;;;;1.70;0.50;;;17.70;92.00;;;;;;5067486;28;20434;-63
2023/03/21 12:04:57;;;;;;;0.50;0.30;;;17.40;92.00;;;;;;5092293;28;20429;-63
2023/03/21 12:07:46;;;;;;;0.40;0.30;;;17.10;91.20;;;;;;5094574;28;20446;-63
2023/03/21 12:10:36;;;;;;;0.50;0.30;;;17.10;91.70;;;;;;5094323;28;20502;-62
2023/03/21 12:13:22;;;;;;;0.77;0.22;;;17.10;93.20;;;;;;5091827;28;20481;-53
2023/03/21 12:16:05;;;;;;;0.60;0.40;;;17.00;93.70;;;;;;5071815;28;20471;-55
2023/03/21 12:18:47;;;;;;;0.65;0.40;;;16.90;93.60;;;;;;5072287;28;20420;-54
2023/03/21 12:21:20;;;;;;;0.60;0.30;;;17.00;93.70;;;;;;5070852;28;20512;-54
2023/03/21 12:23:59;;;;;;;0.60;0.30;;;17.00;93.50;;;;;;5071501;28;20778;-56
2023/03/21 12:26:31;;;;;;;0.70;0.40;;;16.90;93.30;;;;;;5071828;28;20815;-56
2023/03/21 12:29:29;;;;;;;0.57;0.40;;;16.90;93.30;;;;;;5073679;28;20541;-57
2023/03/21 12:32:10;;;;;;;0.50;0.30;;;16.90;93.00;;;;;;5067454;28;20767;-58
2023/03/21 12:35:07;;;;;;;0.50;0.30;;;17.00;92.00;;;;;;5073378;28;20415;-59
2023/03/21 12:37:42;;;;;;;0.90;0.40;;;17.00;91.40;;;;;;5074779;28;20419;-59
2023/03/21 12:40:17;;;;;;;0.60;0.32;;;17.10;91.50;;;;;;5074631;28;20485;-58
2023/03/21 12:43:02;;;;;;;0.60;0.30;;;17.10;90.10;;;;;;5071907;28;20420;-59
2023/03/21 12:45:35;;;;;;;0.60;0.30;;;17.20;90.80;;;;;;5077346;28;20733;-58
2023/03/21 12:48:18;;;;;;;0.47;0.30;;;17.10;89.20;;;;;;5082044;28;20419;-59
2023/03/21 12:50:49;;;;;;;0.50;0.20;;;17.00;88.20;;;;;;5073617;28;20432;-59
2023/03/21 12:53:30;;;;;;;0.50;0.30;;;17.10;91.20;;;;;;5072141;28;20419;-56
2023/03/21 12:56:01;;;;;;;0.68;0.30;;;17.30;90.20;;;;;;5070747;28;20734;-56
2023/03/21 12:58:31;;;;;;;0.60;0.30;;;17.50;86.00;;;;;;5084259;28;20418;-58
2023/03/21 13:01:01;;;;;;;0.63;0.40;;;17.40;88.60;;;;;;5081384;28;20435;-55
2023/03/21 13:03:33;;;;;;;0.60;0.30;;;17.70;86.10;;;;;;5071186;28;20420;-56
2023/03/21 13:06:03;;;;;;;1.17;0.60;;;17.80;83.10;;;;;;5069846;28;20670;-56
2023/03/21 13:08:33;;;;;;;0.90;0.40;;;17.90;83.90;;;;;;5070828;28;20411;-55
2023/03/21 13:11:02;;;;;;;0.60;0.30;;;18.30;82.80;;;;;;5072178;28;20842;-55